Main page
METAR-TAF:

METAR-TAF

Airports :

Supadio International Airport

Pontianak, Indonesia

latitude: 00-09S, longitude: 109-24E, elevation: 3 m

Current weather observation

The report was made 41 minutes ago, at 15:00 UTC
Wind 4 kt from the Southeast, varying between East and South/Southeast
Temperature 25°C
Humidity 100%
Pressure 1009 hPa
Visibility 10 km or more
Few clouds at a height of 500 ft
Overcast at a height of 1500 ft
light rain,

METAR: WIOO 181500Z AUTO 13004KT 090V160 9999 -RA FEW005 OVC015 25/25 Q1009

Time: 22:41 (15:41 UTC)


TAF: missing

Weather observations and forecasts of more than 4000 airports (METAR and TAF reports).

The available stations are represented by yellow and red dots on the map.

Hover mouse over dot to see the name of the station.

Then click to see weather observations and forecasts.

To change the map : click on the green buttons with a black cross to zoom in, on the green button with a dash to zoom out, or on the green arrows for adjacent maps.


METAR-TAF: